Time;durP1;ratioP1;P1;durP2;ratioP2;P2;SDS_P1;SDS_P2;PMS_P1;PMS_P2;Temp;Humidity;BMP_temperature;BMP_pressure;BME280_temperature;BME280_humidity;BME280_pressure;Samples;Min_cycle;Max_cycle;Signal;HPM_P1;HPM_P2
2021/12/16 00:02:06;;;;;;;6.03;4.45;;;;;;;;;;8283574;28;20208;-66
2021/12/16 00:10:42;;;;;;;5.32;3.95;;;;;;;;;;8283346;28;20524;-66
2021/12/16 00:36:17;;;;;;;5.55;3.22;;;;;;;;;;8282868;28;20032;-66
2021/12/16 00:40:18;;;;;;;4.97;3.20;;;;;;;;;;8284314;28;20861;-66
2021/12/16 00:57:13;;;;;;;12.50;8.65;;;;;;;;;;8283867;28;20037;-66
2021/12/16 01:01:33;;;;;;;;;;;;;;;;;;8285220;28;20589;-67
2021/12/16 01:52:46;;;;;;;7.20;4.57;;;;;;;;;;8291243;28;20076;-66
2021/12/16 02:00:43;;;;;;;4.60;3.80;;;;;;;;;;8285097;28;20034;-65
2021/12/16 02:05:10;;;;;;;5.60;3.85;;;;;;;;;;8290057;28;20057;-67
2021/12/16 02:09:07;;;;;;;4.93;3.28;;;;;;;;;;8286669;28;20087;-66
2021/12/16 02:34:25;;;;;;;5.53;3.38;;;;;;;;;;8287489;28;20428;-66
2021/12/16 02:38:29;;;;;;;5.28;3.40;;;;;;;;;;8286564;28;22035;-66
2021/12/16 02:42:39;;;;;;;5.20;3.07;;;;;;;;;;8285887;28;20041;-66
2021/12/16 02:51:01;;;;;;;7.05;3.08;;;;;;;;;;8286646;28;20056;-66
2021/12/16 02:55:01;;;;;;;3.23;2.50;;;;;;;;;;8285467;28;20966;-66
2021/12/16 02:59:02;;;;;;;4.60;3.20;;;;;;;;;;8288510;28;20111;-66
2021/12/16 03:03:02;;;;;;;10.15;6.97;;;;;;;;;;8287581;28;20906;-66
2021/12/16 03:07:03;;;;;;;12.07;7.10;;;;;;;;;;8283095;28;20554;-66
2021/12/16 03:19:55;;;;;;;10.00;6.40;;;;;;;;;;8288318;28;20026;-66
2021/12/16 03:37:18;;;;;;;4.82;3.47;;;;;;;;;;8286379;28;20111;-66
2021/12/16 03:41:19;;;;;;;6.97;3.28;;;;;;;;;;8284253;28;20419;-65
2021/12/16 03:49:48;;;;;;;4.10;3.20;;;;;;;;;;8285158;28;20084;-65
2021/12/16 03:53:49;;;;;;;3.78;2.70;;;;;;;;;;8286444;28;20029;-65
2021/12/16 03:57:50;;;;;;;3.45;2.47;;;;;;;;;;8283192;28;20657;-65
2021/12/16 04:01:50;;;;;;;5.82;2.75;;;;;;;;;;8285514;28;20439;-66
2021/12/16 04:05:51;;;;;;;3.70;2.75;;;;;;;;;;8282445;28;20033;-65
2021/12/16 04:09:51;;;;;;;3.65;2.60;;;;;;;;;;8283316;28;20375;-65
2021/12/16 04:13:57;;;;;;;3.10;2.50;;;;;;;;;;8283232;28;20036;-65
2021/12/16 04:17:58;;;;;;;5.57;2.70;;;;;;;;;;8281980;28;20025;-65
2021/12/16 04:22:01;;;;;;;7.68;4.50;;;;;;;;;;8284254;28;20099;-65
2021/12/16 04:26:01;;;;;;;5.63;3.40;;;;;;;;;;8285266;28;20029;-65
2021/12/16 04:30:03;;;;;;;6.88;3.88;;;;;;;;;;8282435;28;20094;-66
2021/12/16 04:34:04;;;;;;;4.13;2.83;;;;;;;;;;8283825;28;20030;-65
2021/12/16 04:38:05;;;;;;;3.80;2.58;;;;;;;;;;8284913;28;20138;-65
2021/12/16 04:42:07;;;;;;;4.15;2.95;;;;;;;;;;8285121;28;20035;-65
2021/12/16 04:46:08;;;;;;;7.13;4.18;;;;;;;;;;8285576;28;20419;-66
2021/12/16 04:50:09;;;;;;;5.55;4.70;;;;;;;;;;8291671;28;20018;-65
2021/12/16 04:54:10;;;;;;;9.55;5.80;;;;;;;;;;8294726;28;20033;-65
2021/12/16 04:58:10;;;;;;;10.82;5.40;;;;;;;;;;8292234;28;20036;-65
2021/12/16 05:02:14;;;;;;;9.18;6.15;;;;;;;;;;8284871;28;20474;-66
2021/12/16 05:06:14;;;;;;;7.75;4.85;;;;;;;;;;8290702;28;20322;-65
2021/12/16 05:10:16;;;;;;;9.73;6.25;;;;;;;;;;8291874;28;20529;-65
2021/12/16 05:14:19;;;;;;;9.98;6.60;;;;;;;;;;8286651;28;20536;-65
2021/12/16 05:18:30;;;;;;;6.75;4.53;;;;;;;;;;8289799;28;20576;-65
2021/12/16 05:26:49;;;;;;;5.28;4.65;;;;;;;;;;8289184;28;20036;-65
2021/12/16 05:30:50;;;;;;;7.45;4.85;;;;;;;;;;8287284;28;20037;-66
2021/12/16 05:34:50;;;;;;;6.20;4.45;;;;;;;;;;8289413;28;20051;-65
2021/12/16 05:38:51;;;;;;;8.18;5.00;;;;;;;;;;8286776;28;20053;-66
2021/12/16 05:42:56;;;;;;;12.63;6.85;;;;;;;;;;8287630;28;20021;-65
2021/12/16 05:46:56;;;;;;;7.80;5.05;;;;;;;;;;8288265;28;20041;-65
2021/12/16 05:50:58;;;;;;;6.90;4.03;;;;;;;;;;8286056;28;20099;-65
2021/12/16 05:54:58;;;;;;;7.03;4.22;;;;;;;;;;8287294;28;20075;-65
2021/12/16 05:58:58;;;;;;;6.15;4.43;;;;;;;;;;8286178;28;20029;-65
2021/12/16 06:02:58;;;;;;;8.07;4.45;;;;;;;;;;8288361;28;20042;-66
2021/12/16 06:06:59;;;;;;;4.53;3.63;;;;;;;;;;8287482;28;20022;-65
2021/12/16 06:15:20;;;;;;;4.45;3.03;;;;;;;;;;8288714;28;20027;-65
2021/12/16 06:28:02;;;;;;;7.97;4.20;;;;;;;;;;8287346;28;20036;-65
2021/12/16 06:32:02;;;;;;;;;;;;;;;;;;8281510;28;20641;-65
2021/12/16 06:36:03;;;;;;;5.90;3.80;;;;;;;;;;8286132;28;19912;-66
2021/12/16 06:40:04;;;;;;;4.85;3.65;;;;;;;;;;8284999;28;20037;-65
2021/12/16 06:44:10;;;;;;;5.47;4.18;;;;;;;;;;8285221;28;20021;-65
2021/12/16 06:48:16;;;;;;;5.22;3.97;;;;;;;;;;8279765;28;20506;-65
2021/12/16 06:52:20;;;;;;;5.80;3.75;;;;;;;;;;8278686;28;20351;-65
2021/12/16 06:56:33;;;;;;;4.40;3.30;;;;;;;;;;8279880;28;20166;-65
2021/12/16 07:00:40;;;;;;;3.93;3.53;;;;;;;;;;8281945;28;20601;-65
2021/12/16 07:04:43;;;;;;;6.20;4.22;;;;;;;;;;8280666;28;20529;-65
2021/12/16 07:08:44;;;;;;;7.05;4.53;;;;;;;;;;8278855;28;20573;-65
2021/12/16 07:12:48;;;;;;;5.90;4.38;;;;;;;;;;8284861;28;22226;-65
2021/12/16 07:16:48;;;;;;;;;;;;;;;;;;8279056;28;20398;-65
2021/12/16 07:20:48;;;;;;;9.23;4.75;;;;;;;;;;8281885;28;19944;-65
2021/12/16 07:24:48;;;;;;;9.32;4.97;;;;;;;;;;8280039;28;20504;-65
2021/12/16 07:28:49;;;;;;;9.32;5.38;;;;;;;;;;8283838;28;20711;-65
2021/12/16 07:32:50;;;;;;;5.85;5.05;;;;;;;;;;8279272;28;20131;-65
2021/12/16 07:36:51;;;;;;;13.77;8.30;;;;;;;;;;8279519;28;20419;-65
2021/12/16 07:40:52;;;;;;;10.73;6.95;;;;;;;;;;8280162;28;20018;-65
2021/12/16 07:44:52;;;;;;;11.57;6.75;;;;;;;;;;8278672;28;20030;-65
2021/12/16 07:48:52;;;;;;;11.75;6.70;;;;;;;;;;8276679;28;20038;-65
2021/12/16 07:52:53;;;;;;;10.85;5.25;;;;;;;;;;8280735;28;20022;-65
2021/12/16 07:56:55;;;;;;;9.73;5.30;;;;;;;;;;8276922;28;20037;-65
2021/12/16 08:00:56;;;;;;;5.47;4.30;;;;;;;;;;8276592;28;20069;-65
2021/12/16 08:04:56;;;;;;;5.10;3.45;;;;;;;;;;8280852;28;20647;-67
2021/12/16 08:08:58;;;;;;;6.68;4.30;;;;;;;;;;8281058;28;20320;-66
2021/12/16 08:12:58;;;;;;;10.40;4.70;;;;;;;;;;8281117;28;20044;-67
2021/12/16 08:16:58;;;;;;;8.25;4.93;;;;;;;;;;8277464;28;20508;-66
2021/12/16 08:20:59;;;;;;;12.85;5.40;;;;;;;;;;8286004;28;20024;-66
2021/12/16 08:24:59;;;;;;;7.10;5.20;;;;;;;;;;8286034;28;20471;-67
2021/12/16 08:28:59;;;;;;;8.40;5.50;;;;;;;;;;8286970;28;20187;-67
2021/12/16 08:33:04;;;;;;;6.60;4.88;;;;;;;;;;8285199;28;20068;-67
2021/12/16 08:37:06;;;;;;;7.28;5.05;;;;;;;;;;8285921;28;20501;-67
2021/12/16 08:41:08;;;;;;;10.20;5.82;;;;;;;;;;8286658;28;20470;-66
2021/12/16 08:45:10;;;;;;;6.95;4.65;;;;;;;;;;8286347;28;20104;-67
2021/12/16 08:49:10;;;;;;;7.45;4.30;;;;;;;;;;8284853;28;20072;-67
2021/12/16 08:53:11;;;;;;;11.88;4.32;;;;;;;;;;8284999;28;20095;-67
2021/12/16 08:57:12;;;;;;;8.85;4.00;;;;;;;;;;8284710;28;20038;-67
2021/12/16 09:01:14;;;;;;;6.35;4.00;;;;;;;;;;8283239;28;20534;-67
2021/12/16 09:05:15;;;;;;;7.75;4.22;;;;;;;;;;8282592;28;20357;-67
2021/12/16 09:09:15;;;;;;;10.75;5.40;;;;;;;;;;8284628;28;20056;-66
2021/12/16 09:13:17;;;;;;;12.20;5.65;;;;;;;;;;8284703;28;20447;-67
2021/12/16 09:17:17;;;;;;;11.68;5.20;;;;;;;;;;8285262;28;20072;-66
2021/12/16 09:21:21;;;;;;;8.63;4.00;;;;;;;;;;8284109;28;20025;-67
2021/12/16 09:25:21;;;;;;;8.30;3.80;;;;;;;;;;8285701;28;20025;-67
2021/12/16 09:29:22;;;;;;;5.20;3.88;;;;;;;;;;8284849;28;20035;-67
2021/12/16 09:33:24;;;;;;;6.60;3.80;;;;;;;;;;8271167;28;20042;-67
2021/12/16 09:37:25;;;;;;;6.95;4.38;;;;;;;;;;8282702;28;20026;-67
2021/12/16 09:41:27;;;;;;;11.93;4.88;;;;;;;;;;8286492;28;20533;-67
2021/12/16 09:45:27;;;;;;;8.55;4.75;;;;;;;;;;8282615;28;20050;-67
2021/12/16 09:49:28;;;;;;;6.32;4.38;;;;;;;;;;8282288;28;20059;-67
2021/12/16 09:53:28;;;;;;;10.85;4.60;;;;;;;;;;8284050;28;20552;-66
2021/12/16 09:57:28;;;;;;;8.52;4.10;;;;;;;;;;8279898;28;20474;-67
2021/12/16 10:01:29;;;;;;;6.75;4.47;;;;;;;;;;8282726;28;20463;-67
2021/12/16 10:05:31;;;;;;;6.25;4.43;;;;;;;;;;8281879;28;20111;-66
2021/12/16 10:09:31;;;;;;;8.65;4.57;;;;;;;;;;8281805;28;20155;-66
2021/12/16 10:17:50;;;;;;;6.65;5.50;;;;;;;;;;8282366;28;20044;-66
2021/12/16 10:21:51;;;;;;;10.10;6.27;;;;;;;;;;8282898;28;20136;-67
2021/12/16 10:25:56;;;;;;;9.00;6.30;;;;;;;;;;8283661;28;20328;-66
2021/12/16 10:29:58;;;;;;;14.77;8.45;;;;;;;;;;8282366;28;20025;-67
2021/12/16 10:34:05;;;;;;;12.77;8.20;;;;;;;;;;8280437;28;20038;-67
2021/12/16 10:38:06;;;;;;;11.52;8.43;;;;;;;;;;8277760;28;20025;-66
2021/12/16 10:42:07;;;;;;;11.90;7.10;;;;;;;;;;8279468;28;20564;-66
2021/12/16 10:46:09;;;;;;;11.15;7.15;;;;;;;;;;8281436;28;20148;-66
2021/12/16 10:50:13;;;;;;;9.65;6.82;;;;;;;;;;8277445;28;20633;-66
2021/12/16 10:54:24;;;;;;;10.65;6.20;;;;;;;;;;8282828;28;20035;-66
2021/12/16 10:58:42;;;;;;;10.05;5.90;;;;;;;;;;8280552;28;20041;-66
2021/12/16 11:02:43;;;;;;;10.55;6.30;;;;;;;;;;8278326;28;20057;-67
2021/12/16 11:06:45;;;;;;;8.88;5.32;;;;;;;;;;8280419;28;20032;-66
2021/12/16 11:10:46;;;;;;;12.10;5.93;;;;;;;;;;8276804;28;20032;-66
2021/12/16 11:14:54;;;;;;;8.85;5.75;;;;;;;;;;8278806;28;20025;-66
2021/12/16 11:18:55;;;;;;;8.20;6.20;;;;;;;;;;8278978;28;20037;-66
2021/12/16 11:23:00;;;;;;;6.85;4.97;;;;;;;;;;8279317;28;20124;-66
2021/12/16 11:27:18;;;;;;;8.30;5.07;;;;;;;;;;8278030;28;20140;-66
2021/12/16 11:31:23;;;;;;;6.20;4.43;;;;;;;;;;8282950;28;20037;-67
2021/12/16 11:35:24;;;;;;;8.65;4.97;;;;;;;;;;8278763;28;20606;-67
2021/12/16 11:39:27;;;;;;;11.70;6.30;;;;;;;;;;8278417;28;20584;-66
2021/12/16 11:43:36;;;;;;;13.03;6.53;;;;;;;;;;8282713;28;20280;-66
2021/12/16 11:47:45;;;;;;;11.60;6.35;;;;;;;;;;8275206;28;20598;-67
2021/12/16 11:51:48;;;;;;;12.25;6.32;;;;;;;;;;8278636;28;20531;-66
2021/12/16 11:55:49;;;;;;;10.05;6.53;;;;;;;;;;8272925;28;20027;-66
2021/12/16 11:59:49;;;;;;;11.02;6.97;;;;;;;;;;8264673;28;20148;-66
2021/12/16 12:03:50;;;;;;;10.13;5.95;;;;;;;;;;8278991;28;20479;-67
2021/12/16 12:07:53;;;;;;;10.02;6.63;;;;;;;;;;8278308;28;20016;-66
2021/12/16 12:11:53;;;;;;;7.63;4.57;;;;;;;;;;8276768;28;20024;-66
2021/12/16 12:16:10;;;;;;;8.48;4.07;;;;;;;;;;8275102;28;20033;-66
2021/12/16 12:20:11;;;;;;;5.32;3.90;;;;;;;;;;8277704;28;20025;-66
2021/12/16 12:24:16;;;;;;;6.80;3.85;;;;;;;;;;8283751;28;20529;-66
2021/12/16 12:28:16;;;;;;;7.57;4.00;;;;;;;;;;8281801;28;20375;-66
2021/12/16 12:32:21;;;;;;;7.00;3.17;;;;;;;;;;8282228;28;20034;-67
2021/12/16 12:36:22;;;;;;;4.78;3.00;;;;;;;;;;8278165;28;20066;-67
2021/12/16 12:40:27;;;;;;;5.63;2.95;;;;;;;;;;8277790;28;20880;-67
2021/12/16 12:44:27;;;;;;;6.85;3.08;;;;;;;;;;8253908;28;20615;-67
2021/12/16 12:48:28;;;;;;;8.50;3.43;;;;;;;;;;8273715;28;20471;-66
2021/12/16 12:52:30;;;;;;;5.88;3.30;;;;;;;;;;8280964;28;20631;-66
2021/12/16 12:56:32;;;;;;;9.75;3.60;;;;;;;;;;8277142;28;20630;-66
2021/12/16 13:00:38;;;;;;;9.10;4.30;;;;;;;;;;8282111;28;20385;-66
2021/12/16 13:04:48;;;;;;;9.38;5.50;;;;;;;;;;8276940;28;20029;-67
2021/12/16 13:08:49;;;;;;;10.02;6.75;;;;;;;;;;8282971;28;20036;-67
2021/12/16 13:13:03;;;;;;;8.32;5.57;;;;;;;;;;8284319;28;20025;-66
2021/12/16 13:26:15;;;;;;;11.38;7.63;;;;;;;;;;8285959;28;20167;-66
2021/12/16 13:30:22;;;;;;;14.25;7.32;;;;;;;;;;8284985;28;20579;-66
2021/12/16 13:34:25;;;;;;;12.40;8.05;;;;;;;;;;8283027;28;20456;-66
2021/12/16 13:38:35;;;;;;;14.65;7.38;;;;;;;;;;8283063;28;20036;-66
2021/12/16 13:42:55;;;;;;;10.48;6.88;;;;;;;;;;8284050;28;20050;-66
2021/12/16 13:47:03;;;;;;;11.65;6.68;;;;;;;;;;8283007;28;20064;-66
2021/12/16 14:08:51;;;;;;;13.23;7.60;;;;;;;;;;8288602;28;20088;-66
2021/12/16 14:18:09;;;;;;;12.68;7.70;;;;;;;;;;8287635;28;20835;-65
2021/12/16 14:26:48;;;;;;;13.30;8.23;;;;;;;;;;8287694;28;20048;-65
2021/12/16 14:44:08;;;;;;;11.30;8.25;;;;;;;;;;8287147;28;20032;-66
2021/12/16 14:48:35;;;;;;;14.25;8.02;;;;;;;;;;8287092;28;20136;-66
2021/12/16 14:52:29;;;;;;;14.18;8.40;;;;;;;;;;8286213;28;20042;-66
2021/12/16 14:56:31;;;;;;;13.57;8.50;;;;;;;;;;8285920;28;20106;-66
2021/12/16 15:00:38;;;;;;;14.30;8.30;;;;;;;;;;8285699;28;20041;-66
2021/12/16 15:04:38;;;;;;;12.77;8.18;;;;;;;;;;8285476;28;20095;-66
2021/12/16 15:12:55;;;;;;;12.05;8.30;;;;;;;;;;8288447;28;20035;-66
2021/12/16 15:17:12;;;;;;;14.63;7.80;;;;;;;;;;8284661;28;20041;-66
2021/12/16 15:42:58;;;;;;;14.98;8.07;;;;;;;;;;8271861;28;20560;-66
2021/12/16 15:46:59;;;;;;;14.98;9.05;;;;;;;;;;8284273;28;20038;-66
2021/12/16 15:51:07;;;;;;;12.82;8.00;;;;;;;;;;8285876;28;20068;-66
2021/12/16 15:55:13;;;;;;;11.57;8.23;;;;;;;;;;8285493;28;20095;-65
2021/12/16 15:59:15;;;;;;;15.50;8.63;;;;;;;;;;8284277;28;20020;-66
2021/12/16 16:03:16;;;;;;;16.35;9.07;;;;;;;;;;8285889;28;20106;-66
2021/12/16 16:07:16;;;;;;;16.08;8.90;;;;;;;;;;8285368;28;20117;-65
2021/12/16 16:11:19;;;;;;;12.30;7.93;;;;;;;;;;8288288;28;20151;-66
2021/12/16 16:15:22;;;;;;;16.35;9.18;;;;;;;;;;8283441;28;20128;-66
2021/12/16 16:19:24;;;;;;;16.58;10.60;;;;;;;;;;8283659;28;20144;-66
2021/12/16 16:23:25;;;;;;;13.88;9.18;;;;;;;;;;8284161;28;20034;-66
2021/12/16 16:27:29;;;;;;;16.35;9.38;;;;;;;;;;8285369;28;20037;-66
2021/12/16 16:31:30;;;;;;;14.80;9.07;;;;;;;;;;8283520;28;20033;-65
2021/12/16 16:35:31;;;;;;;14.90;9.10;;;;;;;;;;8285314;28;20745;-66
2021/12/16 16:39:32;;;;;;;14.43;9.25;;;;;;;;;;8287223;28;20033;-66
2021/12/16 16:43:41;;;;;;;17.77;8.93;;;;;;;;;;8292198;28;20028;-66
2021/12/16 16:47:50;;;;;;;14.57;8.57;;;;;;;;;;8289718;28;20036;-66
2021/12/16 16:51:51;;;;;;;12.82;8.80;;;;;;;;;;8288637;28;20058;-66
2021/12/16 16:55:51;;;;;;;16.45;10.18;;;;;;;;;;8292060;28;20641;-66
2021/12/16 16:59:53;;;;;;;15.13;9.38;;;;;;;;;;8288322;28;20478;-66
2021/12/16 17:03:54;;;;;;;18.65;9.68;;;;;;;;;;8289117;28;20041;-66
2021/12/16 17:07:55;;;;;;;16.27;10.30;;;;;;;;;;8290610;28;20022;-66
2021/12/16 17:11:55;;;;;;;21.45;11.38;;;;;;;;;;8292560;28;20128;-66
2021/12/16 17:20:06;;;;;;;24.75;11.43;;;;;;;;;;8289532;28;20156;-65
2021/12/16 17:24:08;;;;;;;19.60;11.50;;;;;;;;;;8289915;28;20024;-65
2021/12/16 17:28:09;;;;;;;20.45;12.45;;;;;;;;;;8289841;28;20029;-65
2021/12/16 17:32:13;;;;;;;19.20;12.48;;;;;;;;;;8287154;28;20040;-65
2021/12/16 17:36:14;;;;;;;19.33;12.68;;;;;;;;;;8291699;28;20923;-65
2021/12/16 17:40:17;;;;;;;21.25;12.27;;;;;;;;;;8290041;28;20026;-65
2021/12/16 17:44:18;;;;;;;18.30;12.90;;;;;;;;;;8290731;28;20056;-65
2021/12/16 17:48:20;;;;;;;19.35;12.35;;;;;;;;;;8288503;28;20117;-65
2021/12/16 17:52:24;;;;;;;22.27;12.70;;;;;;;;;;8289871;28;20144;-65
2021/12/16 17:56:26;;;;;;;21.02;13.02;;;;;;;;;;8290225;28;20025;-65
2021/12/16 18:00:28;;;;;;;20.00;13.20;;;;;;;;;;8287983;28;20033;-66
2021/12/16 18:04:29;;;;;;;26.00;13.30;;;;;;;;;;8285816;28;20021;-66
2021/12/16 18:08:34;;;;;;;21.00;13.63;;;;;;;;;;8293847;28;20025;-65
2021/12/16 18:12:34;;;;;;;23.08;14.77;;;;;;;;;;8285382;28;20231;-65
2021/12/16 18:16:41;;;;;;;28.80;18.70;;;;;;;;;;8287284;28;20073;-65
2021/12/16 18:20:43;;;;;;;26.75;15.60;;;;;;;;;;8286810;28;20032;-65
2021/12/16 18:24:45;;;;;;;22.15;14.05;;;;;;;;;;8286910;28;20104;-65
2021/12/16 18:28:47;;;;;;;19.95;12.95;;;;;;;;;;8290807;28;20021;-66
2021/12/16 18:32:54;;;;;;;18.95;13.18;;;;;;;;;;8286946;28;20430;-65
2021/12/16 18:36:57;;;;;;;18.88;12.73;;;;;;;;;;8286655;28;20056;-66
2021/12/16 18:41:04;;;;;;;18.77;12.68;;;;;;;;;;8288058;28;20048;-66
2021/12/16 18:45:11;;;;;;;18.15;11.15;;;;;;;;;;8288146;28;20434;-66
2021/12/16 18:49:22;;;;;;;17.33;11.07;;;;;;;;;;8292300;28;20499;-65
2021/12/16 18:57:51;;;;;;;21.17;12.20;;;;;;;;;;8288757;28;20465;-65
2021/12/16 19:01:53;;;;;;;17.98;11.43;;;;;;;;;;8271497;28;20074;-65
2021/12/16 19:05:54;;;;;;;21.48;11.07;;;;;;;;;;8288167;28;20030;-65
2021/12/16 19:09:54;;;;;;;18.85;11.07;;;;;;;;;;8288456;28;20116;-65
2021/12/16 19:13:55;;;;;;;16.50;10.77;;;;;;;;;;8286444;28;20147;-65
2021/12/16 19:17:57;;;;;;;16.93;10.87;;;;;;;;;;8284639;28;20152;-65
2021/12/16 19:21:57;;;;;;;22.52;12.35;;;;;;;;;;8287781;28;20278;-65
2021/12/16 19:25:59;;;;;;;19.30;12.10;;;;;;;;;;8289871;28;20048;-66
2021/12/16 19:29:59;;;;;;;20.33;12.60;;;;;;;;;;8287941;28;20032;-65
2021/12/16 19:34:02;;;;;;;22.77;12.60;;;;;;;;;;8284436;28;20061;-65
2021/12/16 19:38:03;;;;;;;18.55;11.52;;;;;;;;;;8285406;28;20464;-65
2021/12/16 19:42:04;;;;;;;17.25;11.40;;;;;;;;;;8288646;28;20065;-65
2021/12/16 19:46:05;;;;;;;18.05;11.50;;;;;;;;;;8284290;28;20025;-66
2021/12/16 19:50:05;;;;;;;17.92;10.50;;;;;;;;;;8287590;28;20059;-66
2021/12/16 19:54:07;;;;;;;18.40;10.30;;;;;;;;;;8284354;28;20052;-66
2021/12/16 19:58:07;;;;;;;17.27;10.52;;;;;;;;;;8284474;28;20025;-66
2021/12/16 20:02:08;;;;;;;17.75;10.73;;;;;;;;;;8282884;28;20125;-65
2021/12/16 20:06:09;;;;;;;21.25;11.63;;;;;;;;;;8287840;28;20131;-65
2021/12/16 20:10:14;;;;;;;22.83;11.27;;;;;;;;;;8288030;28;20150;-66
2021/12/16 20:14:14;;;;;;;21.10;12.55;;;;;;;;;;8288160;28;20037;-65
2021/12/16 20:18:16;;;;;;;20.67;11.98;;;;;;;;;;8295788;28;20152;-66
2021/12/16 20:22:19;;;;;;;22.95;12.48;;;;;;;;;;8296559;28;20029;-66
2021/12/16 20:26:23;;;;;;;21.52;12.75;;;;;;;;;;8296613;28;20923;-66
2021/12/16 20:30:26;;;;;;;25.67;14.45;;;;;;;;;;8292528;28;20040;-66
2021/12/16 20:34:31;;;;;;;24.25;13.23;;;;;;;;;;8294390;28;20022;-66
2021/12/16 20:38:33;;;;;;;27.00;13.85;;;;;;;;;;8297294;28;20056;-66
2021/12/16 20:42:36;;;;;;;24.77;14.40;;;;;;;;;;8295743;28;20044;-66
2021/12/16 20:46:37;;;;;;;27.83;15.02;;;;;;;;;;8293426;28;20037;-66
2021/12/16 20:50:39;;;;;;;27.58;14.57;;;;;;;;;;8297779;28;20116;-66
2021/12/16 20:54:41;;;;;;;23.75;14.25;;;;;;;;;;8293469;28;20029;-66
2021/12/16 20:58:47;;;;;;;28.95;16.27;;;;;;;;;;8296993;28;20143;-66
2021/12/16 21:02:47;;;;;;;29.20;15.60;;;;;;;;;;8297937;28;20734;-66
2021/12/16 21:06:49;;;;;;;31.42;16.48;;;;;;;;;;8295709;28;20417;-66
2021/12/16 21:10:50;;;;;;;29.38;17.40;;;;;;;;;;8295362;28;20030;-66
2021/12/16 21:14:52;;;;;;;29.13;16.55;;;;;;;;;;8295708;28;20032;-66
2021/12/16 21:18:53;;;;;;;32.55;16.52;;;;;;;;;;8295052;28;20822;-66
2021/12/16 21:22:54;;;;;;;30.80;17.25;;;;;;;;;;8298178;28;20281;-66
2021/12/16 21:26:54;;;;;;;31.02;17.83;;;;;;;;;;8292867;28;20021;-66
2021/12/16 21:30:56;;;;;;;31.33;17.27;;;;;;;;;;8291978;28;20542;-67
2021/12/16 21:35:05;;;;;;;31.50;16.77;;;;;;;;;;8293370;28;20045;-66
2021/12/16 21:39:08;;;;;;;28.83;17.70;;;;;;;;;;8289497;28;20029;-66
2021/12/16 21:43:09;;;;;;;35.63;18.10;;;;;;;;;;8291928;28;20029;-66
2021/12/16 21:47:09;;;;;;;30.85;17.75;;;;;;;;;;8288683;28;20075;-66
2021/12/16 21:51:09;;;;;;;27.67;17.48;;;;;;;;;;8290231;28;20039;-66
2021/12/16 21:55:11;;;;;;;30.60;16.90;;;;;;;;;;8287261;28;20188;-66
2021/12/16 21:59:11;;;;;;;27.42;16.63;;;;;;;;;;8288485;28;20684;-66
2021/12/16 22:03:13;;;;;;;32.85;17.95;;;;;;;;;;8289090;28;20045;-66
2021/12/16 22:07:14;;;;;;;28.60;16.70;;;;;;;;;;8289312;28;20136;-66
2021/12/16 22:11:15;;;;;;;31.23;17.47;;;;;;;;;;8289915;28;20064;-66
2021/12/16 22:15:21;;;;;;;27.85;16.88;;;;;;;;;;8289508;28;20060;-66
2021/12/16 22:19:21;;;;;;;31.23;18.65;;;;;;;;;;8288560;28;20037;-66
2021/12/16 22:23:23;;;;;;;29.70;17.42;;;;;;;;;;8288949;28;20033;-66
2021/12/16 22:27:23;;;;;;;32.15;18.05;;;;;;;;;;8288435;28;20025;-66
2021/12/16 22:31:26;;;;;;;27.80;17.05;;;;;;;;;;8288930;28;20068;-66
2021/12/16 22:35:27;;;;;;;25.45;16.33;;;;;;;;;;8286758;28;20465;-66
2021/12/16 22:39:29;;;;;;;30.05;17.35;;;;;;;;;;8283126;28;20018;-65
2021/12/16 22:43:29;;;;;;;28.38;17.75;;;;;;;;;;8286934;28;20123;-65
2021/12/16 22:47:29;;;;;;;28.92;16.73;;;;;;;;;;8286669;28;20110;-65
2021/12/16 22:51:30;;;;;;;24.58;15.95;;;;;;;;;;8287009;28;20029;-66
2021/12/16 22:55:30;;;;;;;26.33;16.05;;;;;;;;;;8286780;28;20029;-66
2021/12/16 22:59:41;;;;;;;24.73;14.80;;;;;;;;;;8286839;28;20033;-66
2021/12/16 23:03:42;;;;;;;24.20;14.63;;;;;;;;;;8287506;28;20296;-66
2021/12/16 23:07:42;;;;;;;23.67;14.95;;;;;;;;;;8287967;28;20044;-65
2021/12/16 23:11:42;;;;;;;12.73;9.13;;;;;;;;;;8287345;28;20037;-65
2021/12/16 23:24:05;;;;;;;20.50;13.43;;;;;;;;;;8287926;28;20037;-65
2021/12/16 23:28:07;;;;;;;21.92;14.38;;;;;;;;;;8288479;28;20044;-66
2021/12/16 23:32:07;;;;;;;22.45;14.95;;;;;;;;;;8285142;28;20033;-66
2021/12/16 23:36:07;;;;;;;24.85;15.65;;;;;;;;;;8285259;28;20094;-66
2021/12/16 23:40:09;;;;;;;20.48;14.85;;;;;;;;;;8285800;28;20029;-65
2021/12/16 23:57:07;;;;;;;27.42;16.55;;;;;;;;;;8287985;28;20083;-65
